Time;durP1;ratioP1;P1;durP2;ratioP2;P2;SDS_P1;SDS_P2;PMS_P1;PMS_P2;Temp;Humidity;BMP_temperature;BMP_pressure;BME280_temperature;BME280_humidity;BME280_pressure;Samples;Min_cycle;Max_cycle;Signal;HPM_P1;HPM_P2
2022/08/20 00:00:06;;;;;;;19.65;10.68;;;;;;;16.86;48.90;100171.69;5016577;28;20391;-60
2022/08/20 00:02:57;;;;;;;24.60;11.70;;;;;;;16.86;48.82;100179.72;5032794;28;20494;-59
2022/08/20 00:05:28;;;;;;;30.38;12.70;;;;;;;16.88;48.86;100182.13;5015957;28;20560;-59
2022/08/20 00:07:54;;;;;;;22.52;13.23;;;;;;;16.88;49.06;100179.47;5032978;28;20046;-58
2022/08/20 00:10:21;;;;;;;26.55;13.90;;;;;;;16.87;49.32;100175.19;5032751;28;20037;-60
2022/08/20 00:12:48;;;;;;;24.48;13.55;;;;;;;16.84;49.61;100181.84;5032654;28;20053;-60
2022/08/20 00:15:15;;;;;;;23.17;13.57;;;;;;;16.80;49.63;100178.09;5034009;28;20041;-61
2022/08/20 00:17:41;;;;;;;27.80;14.18;;;;;;;16.78;49.74;100180.22;5033382;28;20056;-59
2022/08/20 00:20:10;;;;;;;24.55;14.27;;;;;;;16.76;50.00;100191.16;5032513;28;20041;-60
2022/08/20 00:22:36;;;;;;;24.90;13.93;;;;;;;16.76;50.42;100190.38;5032702;28;20057;-59
2022/08/20 00:25:06;;;;;;;27.05;14.32;;;;;;;16.74;50.53;100184.47;5033652;28;20406;-59
2022/08/20 00:27:32;;;;;;;28.70;15.93;;;;;;;16.73;50.76;100182.81;5033685;28;20422;-58
2022/08/20 00:29:58;;;;;;;20.70;14.25;;;;;;;16.72;50.72;100189.25;5032891;28;20061;-57
2022/08/20 00:32:23;;;;;;;26.30;15.40;;;;;;;16.67;50.95;100186.53;5033545;28;20042;-60
2022/08/20 00:34:49;;;;;;;31.85;15.90;;;;;;;16.64;51.46;100185.19;5033675;28;20045;-59
2022/08/20 00:37:15;;;;;;;24.33;15.40;;;;;;;16.58;51.33;100178.97;5033280;28;20495;-60
2022/08/20 00:39:40;;;;;;;28.15;15.90;;;;;;;16.53;51.71;100184.31;5033588;28;20042;-58
2022/08/20 00:42:06;;;;;;;29.70;16.92;;;;;;;16.50;51.71;100181.34;5033363;28;20542;-60
2022/08/20 00:44:33;;;;;;;25.77;16.10;;;;;;;16.45;52.17;100182.13;5031953;28;20048;-60
2022/08/20 00:46:58;;;;;;;26.63;15.60;;;;;;;16.39;52.40;100183.16;5033328;28;20052;-61
2022/08/20 00:49:30;;;;;;;28.55;16.50;;;;;;;16.33;52.25;100181.50;5032846;28;20033;-60
2022/08/20 00:52:25;;;;;;;28.30;17.25;;;;;;;16.30;52.69;100173.97;5031680;28;20049;-59
2022/08/20 00:54:54;;;;;;;26.92;17.40;;;;;;;16.25;52.94;100177.41;5032709;28;20052;-59
2022/08/20 00:57:41;;;;;;;35.85;17.20;;;;;;;16.21;52.91;100176.31;5031749;28;20114;-60
2022/08/20 01:00:24;;;;;;;31.65;18.15;;;;;;;16.19;53.10;100181.09;5031690;28;20546;-60
2022/08/20 01:02:49;;;;;;;28.00;18.60;;;;;;;16.18;53.33;100181.34;5033042;28;20510;-59
2022/08/20 01:05:16;;;;;;;28.30;18.52;;;;;;;16.15;53.91;100181.84;5033114;28;20051;-60
2022/08/20 01:07:43;;;;;;;40.97;19.55;;;;;;;16.13;54.01;100174.91;5031939;28;20049;-59
2022/08/20 01:10:24;;;;;;;27.63;18.73;;;;;;;16.10;54.06;100179.97;5014845;28;20045;-59
2022/08/20 01:12:52;;;;;;;28.58;19.20;;;;;;;16.07;54.32;100173.25;5031645;28;20056;-59
2022/08/20 01:15:21;;;;;;;36.45;19.35;;;;;;;16.06;54.25;100176.16;5011553;28;20030;-59
2022/08/20 01:17:50;;;;;;;27.58;18.40;;;;;;;16.02;54.35;100173.19;5013139;28;20050;-59
2022/08/20 01:20:19;;;;;;;40.90;18.80;;;;;;;16.02;54.86;100177.75;4994743;28;20048;-62
2022/08/20 01:23:28;;;;;;;30.58;18.83;;;;;;;15.97;55.05;100178.53;5011915;28;20037;-60
2022/08/20 01:25:59;;;;;;;24.65;19.05;;;;;;;15.97;54.96;100183.03;5013188;28;20049;-58
2022/08/20 01:28:36;;;;;;;33.45;18.77;;;;;;;15.97;55.06;100175.00;5011487;28;20073;-60
2022/08/20 01:31:03;;;;;;;34.05;18.92;;;;;;;15.94;55.22;100181.66;5027804;28;20495;-59
2022/08/20 01:33:30;;;;;;;28.20;18.17;;;;;;;15.90;55.85;100192.06;5012868;28;20435;-59
2022/08/20 01:35:57;;;;;;;26.50;17.17;;;;;;;15.87;55.75;100187.22;5022902;28;20056;-59
2022/08/20 01:38:22;;;;;;;30.45;17.85;;;;;;;15.86;56.20;100192.84;5031132;28;20414;-59
2022/08/20 01:41:13;;;;;;;32.28;18.45;;;;;;;15.85;56.11;100197.41;5032572;28;20090;-59
2022/08/20 01:43:40;;;;;;;32.13;18.60;;;;;;;15.84;56.28;100195.75;5032000;28;20052;-61
2022/08/20 01:46:08;;;;;;;26.88;17.80;;;;;;;15.79;56.14;100186.88;5032346;28;20487;-57
2022/08/20 01:48:36;;;;;;;32.90;18.08;;;;;;;15.78;56.38;100198.63;5032255;28;20045;-59
2022/08/20 01:51:11;;;;;;;27.55;17.35;;;;;;;15.76;56.78;100195.41;5032431;28;20418;-59
2022/08/20 01:53:41;;;;;;;31.80;17.17;;;;;;;15.74;56.89;100193.00;5032081;28;20048;-60
2022/08/20 01:56:09;;;;;;;26.08;16.88;;;;;;;15.71;57.15;100187.34;5031839;28;20041;-58
2022/08/20 01:58:38;;;;;;;27.88;17.63;;;;;;;15.70;56.96;100201.75;5030388;28;20041;-58
2022/08/20 02:01:04;;;;;;;27.45;17.00;;;;;;;15.67;57.30;100192.34;5031762;28;20456;-59
2022/08/20 02:03:30;;;;;;;27.98;17.55;;;;;;;15.66;57.13;100196.09;5031473;28;20129;-61
2022/08/20 02:05:59;;;;;;;29.17;16.92;;;;;;;15.63;57.28;100197.38;5032148;28;20060;-59
2022/08/20 02:08:25;;;;;;;28.77;17.65;;;;;;;15.60;57.37;100197.88;5030295;28;20099;-59
2022/08/20 02:10:51;;;;;;;27.73;17.42;;;;;;;15.57;57.28;100198.38;5031807;28;20041;-57
2022/08/20 02:13:17;;;;;;;24.42;17.27;;;;;;;15.55;57.80;100200.50;5031618;28;20525;-59
2022/08/20 02:16:04;;;;;;;31.00;18.48;;;;;;;15.53;57.75;100202.63;5029677;28;20043;-59
2022/08/20 02:18:30;;;;;;;27.40;16.60;;;;;;;15.51;58.06;100201.25;5031338;28;20048;-60
2022/08/20 02:20:56;;;;;;;24.98;17.45;;;;;;;15.52;57.97;100197.53;5031873;28;20045;-61
2022/08/20 02:23:21;;;;;;;27.75;16.33;;;;;;;15.58;57.47;100205.34;5031325;28;20045;-61
2022/08/20 02:25:47;;;;;;;28.48;16.20;;;;;;;15.66;57.30;100201.44;5031444;28;20116;-59
2022/08/20 02:28:16;;;;;;;22.67;15.85;;;;;;;15.72;57.17;100194.31;5013745;28;20590;-60
2022/08/20 02:30:45;;;;;;;28.23;15.80;;;;;;;15.78;57.07;100209.34;5029312;28;20057;-59
2022/08/20 02:33:13;;;;;;;25.20;17.08;;;;;;;15.87;56.68;100200.59;5030945;28;20053;-58
2022/08/20 02:35:40;;;;;;;28.33;16.25;;;;;;;16.01;56.15;100206.34;5030922;28;20040;-59
2022/08/20 02:38:06;;;;;;;32.40;16.35;;;;;;;16.04;56.07;100205.84;5030357;28;20431;-60
2022/08/20 02:40:32;;;;;;;25.25;15.50;;;;;;;15.99;56.00;100203.13;5029780;28;20075;-59
2022/08/20 02:42:59;;;;;;;25.98;15.80;;;;;;;15.95;56.31;100214.59;5031221;28;20099;-59
2022/08/20 02:45:25;;;;;;;29.70;15.52;;;;;;;16.08;55.82;100212.28;5031339;28;20045;-59
2022/08/20 02:47:54;;;;;;;27.40;15.27;;;;;;;16.33;55.34;100217.06;5030761;28;20518;-60
2022/08/20 02:50:22;;;;;;;28.67;15.95;;;;;;;16.55;54.61;100216.16;5029737;28;20136;-59
2022/08/20 02:52:47;;;;;;;19.75;14.77;;;;;;;16.70;53.85;100218.94;5031220;28;20042;-60
2022/08/20 02:55:14;;;;;;;23.92;15.40;;;;;;;16.86;53.56;100227.13;5029749;28;20068;-57
2022/08/20 02:57:39;;;;;;;25.23;14.93;;;;;;;17.01;53.13;100222.66;5031627;28;20050;-60
2022/08/20 03:00:15;;;;;;;18.52;13.75;;;;;;;17.14;52.68;100220.59;5031299;28;20453;-59
2022/08/20 03:02:40;;;;;;;23.17;14.10;;;;;;;17.28;52.36;100227.09;5030866;28;20473;-59
2022/08/20 03:05:06;;;;;;;27.05;14.05;;;;;;;17.38;52.05;100229.81;5031248;28;20141;-59
2022/08/20 03:07:39;;;;;;;21.88;13.95;;;;;;;17.45;51.70;100230.38;5029911;28;20084;-60
2022/08/20 03:10:05;;;;;;;23.40;14.68;;;;;;;17.51;51.61;100236.56;5031101;28;20073;-59
2022/08/20 03:12:31;;;;;;;21.58;13.73;;;;;;;17.62;51.50;100234.75;5031332;28;20085;-57
2022/08/20 03:14:56;;;;;;;25.10;14.10;;;;;;;17.61;51.34;100233.09;5031253;28;20128;-58
2022/08/20 03:17:22;;;;;;;23.02;14.23;;;;;;;17.62;51.29;100238.22;5030141;28;20184;-58
2022/08/20 03:19:48;;;;;;;23.90;15.57;;;;;;;17.67;51.31;100237.41;5029843;28;20525;-59
2022/08/20 03:22:15;;;;;;;22.63;15.77;;;;;;;17.75;51.04;100239.59;5030419;28;20041;-56
2022/08/20 03:24:41;;;;;;;32.60;21.13;;;;;;;17.76;51.14;100243.88;4980950;28;20414;-59
2022/08/20 03:27:08;;;;;;;29.77;19.90;;;;;;;17.83;50.95;100241.78;5031181;28;20042;-60
2022/08/20 03:29:33;;;;;;;29.65;21.00;;;;;;;17.93;50.61;100241.00;5030482;28;20091;-60
2022/08/20 03:31:59;;;;;;;38.20;20.33;;;;;;;17.94;50.71;100245.28;5031363;28;20046;-59
2022/08/20 03:34:25;;;;;;;39.13;24.08;;;;;;;17.84;50.81;100231.88;5026258;28;20392;-56
2022/08/20 03:36:50;;;;;;;42.05;25.10;;;;;;;18.00;50.60;100243.41;5030909;28;20057;-58
2022/08/20 03:39:16;;;;;;;33.47;23.60;;;;;;;18.05;50.71;100246.91;5030935;28;20053;-59
2022/08/20 03:41:42;;;;;;;34.60;24.27;;;;;;;18.09;50.44;100239.16;5030913;28;20052;-60
2022/08/20 03:44:08;;;;;;;36.13;25.17;;;;;;;18.11;50.44;100240.50;5033498;28;20506;-59
2022/08/20 03:46:34;;;;;;;38.90;26.48;;;;;;;18.19;50.31;100243.72;5032968;28;20041;-59
2022/08/20 03:49:00;;;;;;;37.10;26.23;;;;;;;18.25;50.19;100245.34;5034453;28;20042;-57
2022/08/20 03:51:29;;;;;;;38.75;24.35;;;;;;;18.38;50.10;100245.63;5034786;28;20049;-58
2022/08/20 03:53:55;;;;;;;33.22;25.15;;;;;;;18.47;49.77;100248.59;5034491;28;20045;-59
2022/08/20 03:56:21;;;;;;;32.25;23.27;;;;;;;18.50;49.85;100245.38;5034649;28;20050;-59
2022/08/20 03:58:46;;;;;;;30.55;20.63;;;;;;;18.64;49.43;100247.50;5034303;28;20099;-60
2022/08/20 04:01:12;;;;;;;25.15;18.58;;;;;;;18.69;49.51;100252.88;5034622;28;20052;-59
2022/08/20 04:03:38;;;;;;;28.83;17.85;;;;;;;18.66;49.78;100248.84;5016907;28;20041;-59
2022/08/20 04:06:03;;;;;;;28.83;17.13;;;;;;;18.84;49.33;100247.50;5033445;28;20041;-60
2022/08/20 04:08:29;;;;;;;24.45;13.70;;;;;;;18.78;49.29;100244.03;5034125;28;20053;-60
2022/08/20 04:10:58;;;;;;;24.90;13.27;;;;;;;18.87;49.37;100252.34;5034433;28;20045;-59
2022/08/20 04:13:26;;;;;;;19.90;11.77;;;;;;;18.94;49.07;100249.34;5034275;28;20144;-58
2022/08/20 04:15:54;;;;;;;16.50;10.82;;;;;;;18.94;48.91;100252.03;5032696;28;20048;-58
2022/08/20 04:18:22;;;;;;;18.02;11.10;;;;;;;18.95;49.12;100251.00;5032953;28;20445;-59
2022/08/20 04:20:49;;;;;;;17.15;9.82;;;;;;;18.96;49.26;100248.00;5033752;28;20045;-58
2022/08/20 04:23:15;;;;;;;20.85;10.73;;;;;;;19.14;48.70;100254.69;5033777;28;20048;-58
2022/08/20 04:25:42;;;;;;;16.55;10.73;;;;;;;19.11;48.65;100244.50;5032252;28;20091;-59
2022/08/20 04:28:12;;;;;;;13.02;9.23;;;;;;;19.20;48.66;100242.84;5033726;28;20049;-61
2022/08/20 04:30:38;;;;;;;;;;;;;;;19.36;48.05;100240.94;5033976;28;20434;-59
2022/08/20 04:33:03;;;;;;;17.02;9.00;;;;;;;19.43;47.45;100238.72;5033621;28;20390;-60
2022/08/20 04:35:30;;;;;;;21.92;9.65;;;;;;;19.50;47.18;100236.56;5033243;28;20056;-59
2022/08/20 04:38:03;;;;;;;19.02;9.07;;;;;;;19.58;46.83;100234.38;5033835;28;20574;-60
2022/08/20 04:43:13;;;;;;;14.63;8.20;;;;;;;19.85;46.13;100228.59;5033719;28;20046;-58
2022/08/20 04:45:39;;;;;;;12.77;8.43;;;;;;;19.80;45.71;100231.34;5031796;28;20089;-59
2022/08/20 04:48:06;;;;;;;12.95;8.82;;;;;;;19.59;45.89;100228.72;5033156;28;20085;-59
2022/08/20 04:50:34;;;;;;;19.13;8.63;;;;;;;19.45;46.46;100235.78;5033539;28;20059;-58
2022/08/20 04:53:06;;;;;;;20.23;8.25;;;;;;;19.26;46.48;100231.00;5033262;28;20192;-60
2022/08/20 04:55:32;;;;;;;15.20;8.07;;;;;;;19.19;46.91;100229.69;5032352;28;20064;-58
2022/08/20 04:58:06;;;;;;;13.48;8.02;;;;;;;19.42;46.54;100228.28;5031618;28;20037;-58
2022/08/20 05:00:32;;;;;;;13.70;7.85;;;;;;;19.52;46.02;100225.53;5011245;28;20137;-59
2022/08/20 05:02:57;;;;;;;11.88;6.97;;;;;;;19.53;45.58;100235.22;5027290;28;20124;-61
2022/08/20 05:05:23;;;;;;;15.18;8.07;;;;;;;19.51;45.71;100222.03;5033191;28;20041;-59
2022/08/20 05:07:49;;;;;;;11.32;6.97;;;;;;;19.54;45.43;100230.63;5015736;28;20068;-60
2022/08/20 05:10:17;;;;;;;18.23;8.18;;;;;;;19.44;45.55;100229.59;5011864;28;20070;-60
2022/08/20 05:12:43;;;;;;;14.27;8.02;;;;;;;19.41;45.76;100235.53;5024681;28;20041;-60
2022/08/20 05:15:10;;;;;;;18.23;7.80;;;;;;;19.39;45.49;100234.19;5032581;28;20053;-60
2022/08/20 05:17:37;;;;;;;12.38;6.95;;;;;;;19.37;45.52;100234.47;5028944;28;20171;-59
2022/08/20 05:20:04;;;;;;;13.73;7.43;;;;;;;19.26;45.88;100233.69;5013238;28;20034;-60
2022/08/20 05:22:30;;;;;;;15.23;7.47;;;;;;;19.16;45.74;100239.09;5027746;28;20046;-59
2022/08/20 05:24:58;;;;;;;19.10;6.97;;;;;;;19.17;46.20;100239.91;5011609;28;20053;-60
2022/08/20 05:27:25;;;;;;;21.58;7.35;;;;;;;19.23;46.40;100246.88;5026492;28;20049;-60
2022/08/20 05:30:00;;;;;;;11.23;6.97;;;;;;;19.37;46.09;100242.53;5032717;28;20164;-60
2022/08/20 05:32:26;;;;;;;18.23;7.38;;;;;;;19.46;45.97;100242.75;5031229;28;20676;-61
2022/08/20 05:34:53;;;;;;;14.65;7.13;;;;;;;19.46;45.01;100246.25;5030250;28;20494;-59
2022/08/20 05:37:19;;;;;;;16.55;7.47;;;;;;;19.47;45.07;100239.81;5017254;28;20041;-61
2022/08/20 05:39:45;;;;;;;10.45;6.43;;;;;;;19.57;44.21;100233.56;5011372;28;20412;-61
2022/08/20 05:42:11;;;;;;;14.75;6.97;;;;;;;19.69;44.13;100239.47;5012533;28;20133;-61
2022/08/20 05:44:37;;;;;;;13.82;6.72;;;;;;;19.72;43.65;100240.78;5030983;28;20049;-58
2022/08/20 05:47:03;;;;;;;13.65;6.55;;;;;;;19.84;44.18;100243.94;5027294;28;20574;-58
2022/08/20 05:49:29;;;;;;;13.35;6.20;;;;;;;19.93;43.55;100236.09;5030770;28;20156;-60
2022/08/20 05:51:55;;;;;;;17.38;6.68;;;;;;;19.92;43.09;100242.56;5022948;28;20064;-60
2022/08/20 05:54:22;;;;;;;12.00;6.20;;;;;;;19.83;43.26;100241.56;5028998;28;20037;-58
2022/08/20 05:56:49;;;;;;;16.48;7.55;;;;;;;19.70;43.43;100238.38;5030673;28;20041;-61
2022/08/20 05:59:15;;;;;;;12.70;6.40;;;;;;;19.73;43.51;100237.00;5030228;28;20136;-61
2022/08/20 06:01:41;;;;;;;14.82;6.93;;;;;;;19.79;42.86;100240.47;5030347;28;20176;-60
2022/08/20 06:04:23;;;;;;;16.73;6.50;;;;;;;19.93;42.88;100244.16;5014888;28;20594;-61
2022/08/20 06:07:00;;;;;;;11.10;6.90;;;;;;;20.03;42.84;100244.13;5016287;28;20134;-60
2022/08/20 06:09:27;;;;;;;19.23;6.75;;;;;;;20.09;42.47;100251.06;5031746;28;20065;-61
2022/08/20 06:11:52;;;;;;;20.95;6.90;;;;;;;20.19;42.46;100250.19;5030186;28;20132;-60
2022/08/20 06:14:19;;;;;;;14.20;6.40;;;;;;;20.28;42.48;100256.59;5031597;28;20124;-59
2022/08/20 06:16:45;;;;;;;14.90;6.55;;;;;;;20.59;41.69;100253.69;5030589;28;20138;-60
2022/08/20 06:19:11;;;;;;;15.32;6.60;;;;;;;20.62;41.09;100253.94;5023985;28;20545;-60
2022/08/20 06:21:39;;;;;;;18.15;6.80;;;;;;;20.44;40.80;100254.56;5011027;28;20045;-58
2022/08/20 06:24:05;;;;;;;11.95;5.93;;;;;;;20.20;41.33;100254.47;5010413;28;20049;-60
2022/08/20 06:26:33;;;;;;;13.52;6.00;;;;;;;20.14;41.73;100242.16;5011705;28;20540;-59
2022/08/20 06:29:00;;;;;;;8.88;5.78;;;;;;;20.13;41.40;100257.50;5011322;28;20175;-60
2022/08/20 06:31:27;;;;;;;13.18;5.80;;;;;;;20.13;41.70;100254.81;5011304;28;20057;-60
2022/08/20 06:33:53;;;;;;;8.23;5.38;;;;;;;20.17;41.09;100250.47;5010287;28;20060;-60
2022/08/20 06:36:19;;;;;;;12.02;7.45;;;;;;;20.23;40.96;100250.44;5026512;28;20478;-60
2022/08/20 06:38:45;;;;;;;13.50;5.70;;;;;;;20.30;40.52;100253.63;5030577;28;20477;-60
2022/08/20 06:41:11;;;;;;;9.90;5.45;;;;;;;20.29;40.34;100239.34;5029696;28;20045;-59
2022/08/20 06:43:36;;;;;;;10.25;5.15;;;;;;;20.32;40.10;100254.13;5029125;28;20052;-61
2022/08/20 06:46:02;;;;;;;13.13;6.60;;;;;;;20.34;40.14;100244.69;5031091;28;20060;-59
2022/08/20 06:48:28;;;;;;;16.40;6.38;;;;;;;20.54;40.06;100242.97;5026995;28;20042;-59
2022/08/20 06:50:54;;;;;;;10.80;6.13;;;;;;;20.71;39.65;100239.84;5010884;28;20042;-60
2022/08/20 06:53:20;;;;;;;11.55;4.85;;;;;;;20.63;39.54;100243.94;5026198;28;20045;-60
2022/08/20 06:55:50;;;;;;;10.00;4.60;;;;;;;20.43;39.73;100245.69;5030005;28;20102;-60
2022/08/20 06:58:15;;;;;;;13.32;4.85;;;;;;;20.37;39.50;100238.75;5029407;28;20140;-60
2022/08/20 07:00:42;;;;;;;9.95;4.07;;;;;;;20.40;39.12;100237.38;5030692;28;20176;-61
2022/08/20 07:03:08;;;;;;;14.77;5.10;;;;;;;20.29;39.02;100227.75;5026159;28;20048;-59
2022/08/20 07:05:36;;;;;;;10.25;4.55;;;;;;;20.38;38.54;100229.59;5030124;28;20045;-60
2022/08/20 07:08:03;;;;;;;8.48;4.70;;;;;;;20.42;38.73;100222.56;5029198;28;20045;-60
2022/08/20 07:10:29;;;;;;;11.40;4.07;;;;;;;20.27;39.10;100232.66;5031156;28;20050;-57
2022/08/20 07:12:55;;;;;;;12.05;4.55;;;;;;;20.30;39.01;100237.47;5030885;28;20136;-60
2022/08/20 07:15:22;;;;;;;9.88;4.18;;;;;;;20.32;38.89;100228.00;5011005;28;20140;-59
2022/08/20 07:17:50;;;;;;;13.43;4.30;;;;;;;20.40;39.02;100226.59;5012124;28;20052;-59
2022/08/20 07:20:16;;;;;;;10.68;4.00;;;;;;;20.38;39.31;100226.06;5013286;28;20037;-60
2022/08/20 07:22:42;;;;;;;9.82;4.18;;;;;;;20.34;39.79;100220.47;5013774;28;20049;-59
2022/08/20 07:25:11;;;;;;;10.93;4.10;;;;;;;20.40;39.47;100230.09;5014893;28;20407;-62
2022/08/20 07:27:37;;;;;;;7.93;3.78;;;;;;;20.41;39.00;100217.44;5023988;28;20053;-60
2022/08/20 07:32:52;;;;;;;12.15;4.45;;;;;;;20.69;38.44;100218.56;5033406;28;20415;-59
2022/08/20 07:35:18;;;;;;;11.00;3.80;;;;;;;20.99;37.66;100212.06;5033084;28;20045;-61
2022/08/20 07:37:47;;;;;;;14.23;4.97;;;;;;;21.21;37.54;100213.44;5033722;28;20045;-62
2022/08/20 07:40:23;;;;;;;11.13;4.63;;;;;;;21.32;37.78;100217.59;5034565;28;20487;-60
2022/08/20 07:42:49;;;;;;;15.35;4.50;;;;;;;21.18;37.84;100225.59;5034171;28;20073;-59
2022/08/20 07:45:17;;;;;;;11.35;4.47;;;;;;;20.98;38.03;100213.16;5034277;28;20037;-69
2022/08/20 07:47:44;;;;;;;10.65;4.00;;;;;;;20.79;38.08;100215.75;5016991;28;20115;-61
2022/08/20 07:50:13;;;;;;;7.78;4.07;;;;;;;20.72;38.21;100220.69;5032541;28;20545;-60
2022/08/20 07:52:38;;;;;;;9.73;3.83;;;;;;;20.87;38.50;100225.13;5016488;28;20512;-61
2022/08/20 07:55:08;;;;;;;9.68;3.60;;;;;;;20.95;37.97;100216.41;5014403;28;20099;-59
2022/08/20 07:57:35;;;;;;;8.07;3.90;;;;;;;21.04;37.94;100222.78;5027281;28;20401;-60
2022/08/20 08:00:01;;;;;;;10.38;3.85;;;;;;;21.05;38.00;100223.59;5033801;28;20038;-61
2022/08/20 08:02:28;;;;;;;7.55;3.78;;;;;;;21.01;37.90;100217.97;5032628;28;20042;-61
2022/08/20 08:04:54;;;;;;;12.93;4.57;;;;;;;21.15;37.75;100212.69;5031761;28;20090;-61
2022/08/20 08:07:21;;;;;;;8.23;4.22;;;;;;;21.28;37.55;100228.16;5033752;28;20053;-61
2022/08/20 08:09:47;;;;;;;8.68;4.25;;;;;;;21.35;37.39;100214.31;5032541;28;20045;-60
2022/08/20 08:12:14;;;;;;;5.95;3.60;;;;;;;21.23;37.00;100211.25;5032068;28;20099;-61
2022/08/20 08:14:41;;;;;;;6.85;3.70;;;;;;;21.25;37.04;100217.97;5033672;28;20089;-60
2022/08/20 08:17:07;;;;;;;9.45;3.90;;;;;;;21.21;36.92;100211.56;5032485;28;20069;-59
2022/08/20 08:19:37;;;;;;;6.53;3.60;;;;;;;21.19;36.70;100205.63;5031934;28;20116;-58
2022/08/20 08:22:10;;;;;;;8.77;3.90;;;;;;;21.33;36.90;100221.94;5032530;28;20049;-59
2022/08/20 08:24:36;;;;;;;12.07;4.15;;;;;;;21.42;37.44;100214.03;5032264;28;20534;-59
2022/08/20 08:27:02;;;;;;;11.25;3.90;;;;;;;21.46;37.14;100206.94;5033818;28;20059;-60
2022/08/20 08:29:28;;;;;;;12.00;4.38;;;;;;;21.45;37.39;100206.16;5031769;28;20468;-60
2022/08/20 08:31:54;;;;;;;10.65;4.07;;;;;;;21.43;36.72;100215.63;5032613;28;20045;-60
2022/08/20 08:34:21;;;;;;;8.25;3.85;;;;;;;21.46;36.90;100204.25;5031649;28;20494;-60
2022/08/20 08:36:46;;;;;;;9.95;4.20;;;;;;;21.45;37.15;100206.16;5033347;28;20091;-59
2022/08/20 08:39:12;;;;;;;11.27;3.65;;;;;;;21.57;36.93;100200.34;5032901;28;20435;-60
2022/08/20 08:41:48;;;;;;;11.10;4.10;;;;;;;21.73;37.09;100209.81;5031723;28;20136;-62
2022/08/20 08:44:30;;;;;;;9.30;4.10;;;;;;;21.92;36.81;100211.72;5015426;28;20037;-58
2022/08/20 08:47:17;;;;;;;13.77;4.25;;;;;;;21.96;36.43;100221.63;5033232;28;20045;-59
2022/08/20 08:49:43;;;;;;;10.75;4.20;;;;;;;22.07;36.12;100224.19;5031136;28;20091;-59
2022/08/20 08:52:18;;;;;;;10.20;3.67;;;;;;;21.98;35.62;100229.44;5031653;28;20188;-59
2022/08/20 08:54:52;;;;;;;8.80;3.95;;;;;;;22.05;35.74;100221.75;4990191;28;20157;-58
2022/08/20 08:57:18;;;;;;;9.13;3.50;;;;;;;22.05;35.37;100220.97;5011857;28;20046;-60
2022/08/20 08:59:44;;;;;;;7.03;4.03;;;;;;;21.98;35.73;100227.53;5013333;28;20042;-60
2022/08/20 09:02:18;;;;;;;10.30;4.20;;;;;;;22.05;35.99;100202.88;5012097;28;20466;-60
2022/08/20 09:04:43;;;;;;;15.70;4.60;;;;;;;22.07;35.62;100219.59;4999616;28;20042;-59
2022/08/20 09:07:13;;;;;;;8.48;4.03;;;;;;;22.03;35.47;100215.03;5011707;28;20060;-60
2022/08/20 09:09:41;;;;;;;11.23;3.70;;;;;;;22.03;35.64;100223.16;5011638;28;20049;-61
2022/08/20 09:12:19;;;;;;;8.32;4.13;;;;;;;21.94;36.04;100220.31;5014411;28;20423;-59
2022/08/20 09:14:47;;;;;;;11.07;4.05;;;;;;;22.07;36.07;100226.88;5025376;28;20124;-58
2022/08/20 09:17:13;;;;;;;15.98;4.22;;;;;;;22.12;35.57;100226.78;5031346;28;20045;-59
2022/08/20 09:19:39;;;;;;;10.65;4.13;;;;;;;22.09;35.75;100228.19;5030458;28;20077;-60
2022/08/20 09:22:16;;;;;;;8.50;4.20;;;;;;;22.04;35.49;100230.16;5032438;28;20573;-61
2022/08/20 09:24:43;;;;;;;9.20;4.10;;;;;;;21.94;35.44;100223.00;5032091;28;20034;-60
2022/08/20 09:27:09;;;;;;;8.30;4.25;;;;;;;21.89;35.29;100212.31;5031358;28;20045;-60
2022/08/20 09:29:35;;;;;;;11.95;4.43;;;;;;;21.89;34.70;100212.31;5032334;28;20048;-60
2022/08/20 09:32:05;;;;;;;13.40;5.10;;;;;;;21.85;35.08;100220.16;5032676;28;20541;-61
2022/08/20 09:34:33;;;;;;;;;;;;;;;21.92;35.15;100212.53;5030879;28;20037;-59
2022/08/20 09:36:59;;;;;;;11.98;4.93;;;;;;;21.95;35.11;100225.44;5032139;28;19947;-60
2022/08/20 09:39:25;;;;;;;8.95;4.43;;;;;;;21.93;35.28;100222.22;5027826;28;20512;-61
2022/08/20 09:41:50;;;;;;;8.20;4.45;;;;;;;21.91;35.71;100231.69;5031982;28;20522;-61
2022/08/20 09:44:16;;;;;;;14.10;5.07;;;;;;;21.81;36.11;100231.84;5024108;28;20049;-61
2022/08/20 09:46:42;;;;;;;10.05;4.85;;;;;;;21.57;36.86;100240.00;5012600;28;20046;-63
2022/08/20 09:49:07;;;;;;;12.48;5.72;;;;;;;21.44;36.84;100245.00;5012608;28;20049;-61
2022/08/20 09:51:33;;;;;;;12.52;6.45;;;;;;;21.36;37.12;100239.44;5012933;28;20044;-61
2022/08/20 09:53:59;;;;;;;16.92;6.32;;;;;;;21.24;37.73;100240.63;5012630;28;20414;-61
2022/08/20 09:56:24;;;;;;;9.63;5.53;;;;;;;21.19;37.71;100243.38;5027267;28;20483;-60
2022/08/20 09:58:52;;;;;;;12.00;6.25;;;;;;;21.16;38.12;100248.53;5030649;28;20052;-60
2022/08/20 10:01:19;;;;;;;14.60;6.03;;;;;;;21.12;38.34;100250.19;5029447;28;20495;-60
2022/08/20 10:03:47;;;;;;;18.02;6.55;;;;;;;21.08;38.61;100249.97;5026709;28;20531;-59
2022/08/20 10:06:15;;;;;;;15.85;7.70;;;;;;;20.99;38.92;100251.69;5012635;28;20050;-61
2022/08/20 10:08:42;;;;;;;21.40;8.57;;;;;;;20.81;39.75;100251.31;5024258;28;20053;-60
2022/08/20 10:11:07;;;;;;;17.10;8.05;;;;;;;20.67;40.71;100255.75;5031788;28;20049;-57
2022/08/20 10:13:33;;;;;;;13.63;9.30;;;;;;;20.48;41.37;100250.25;5031327;28;20418;-61
2022/08/20 10:15:59;;;;;;;17.05;9.48;;;;;;;20.36;40.93;100244.41;5030704;28;20462;-59
2022/08/20 10:18:26;;;;;;;15.48;9.48;;;;;;;20.28;41.50;100245.00;5026193;28;20682;-60
2022/08/20 10:20:52;;;;;;;15.07;9.90;;;;;;;20.26;42.11;100250.66;5030716;28;20140;-59
2022/08/20 10:23:19;;;;;;;19.42;9.55;;;;;;;20.14;42.10;100237.56;4981900;28;20133;-60
2022/08/20 10:25:45;;;;;;;17.77;9.38;;;;;;;20.04;42.88;100232.25;5031741;28;20127;-61
2022/08/20 10:28:10;;;;;;;12.38;9.02;;;;;;;20.00;43.64;100233.09;5025666;28;20046;-62
2022/08/20 10:30:36;;;;;;;15.77;8.43;;;;;;;19.98;44.41;100238.75;5001739;28;20060;-62
2022/08/20 10:33:02;;;;;;;15.43;7.53;;;;;;;19.88;44.83;100244.19;5011844;28;20124;-61
2022/08/20 10:35:28;;;;;;;13.25;6.88;;;;;;;19.69;45.80;100236.78;5030016;28;20037;-61
2022/08/20 10:37:53;;;;;;;18.35;7.20;;;;;;;19.46;45.44;100235.50;5030169;28;20052;-61
2022/08/20 10:40:19;;;;;;;13.00;7.45;;;;;;;19.38;46.15;100238.75;5031608;28;20270;-60
2022/08/20 10:42:45;;;;;;;13.57;7.50;;;;;;;19.29;46.88;100237.72;5030525;28;20051;-62
2022/08/20 10:45:12;;;;;;;11.18;6.82;;;;;;;19.18;47.58;100231.59;5031433;28;20482;-60
2022/08/20 10:47:39;;;;;;;9.23;6.20;;;;;;;19.06;46.27;100242.63;5013525;28;20052;-60
2022/08/20 10:50:07;;;;;;;12.55;7.18;;;;;;;18.96;47.49;100231.91;5031133;28;20041;-59
2022/08/20 10:52:33;;;;;;;9.60;7.05;;;;;;;18.89;47.52;100231.38;5030543;28;20072;-61
2022/08/20 10:54:58;;;;;;;10.02;6.85;;;;;;;18.87;48.38;100238.91;5030087;28;20132;-61
2022/08/20 10:57:27;;;;;;;10.55;6.32;;;;;;;18.82;47.81;100241.59;5031415;28;20041;-60
2022/08/20 10:59:55;;;;;;;12.18;6.68;;;;;;;18.78;48.76;100238.66;5025257;28;20037;-58
2022/08/20 11:02:21;;;;;;;13.05;7.47;;;;;;;18.75;49.68;100247.25;5037387;28;20041;-61
2022/08/20 11:04:48;;;;;;;13.40;6.80;;;;;;;18.69;49.85;100245.63;5039262;28;20450;-60
2022/08/20 11:07:18;;;;;;;9.63;6.70;;;;;;;18.71;50.64;100243.47;5029386;28;20352;-61
2022/08/20 11:09:47;;;;;;;9.90;6.68;;;;;;;18.70;51.00;100243.72;5012833;28;20137;-60
2022/08/20 11:12:13;;;;;;;13.00;6.35;;;;;;;18.70;51.29;100236.47;5018175;28;20052;-61
2022/08/20 11:14:39;;;;;;;11.07;6.30;;;;;;;18.65;51.77;100235.66;5021311;28;20087;-59
2022/08/20 11:17:05;;;;;;;9.82;6.57;;;;;;;18.63;51.35;100235.16;5030750;28;20053;-60
2022/08/20 11:19:31;;;;;;;12.75;6.45;;;;;;;18.59;51.77;100234.91;5030939;28;20045;-61
2022/08/20 11:21:57;;;;;;;11.02;6.65;;;;;;;18.56;52.83;100222.81;5030378;28;20041;-62
2022/08/20 11:24:22;;;;;;;14.05;6.78;;;;;;;18.59;52.93;100227.63;5030505;28;20418;-62